createdAt,value
2022-08-27T00:01:25.250Z,83.10
2022-08-27T00:03:55.278Z,83.00
2022-08-27T00:06:24.975Z,83.10
2022-08-27T00:08:53.626Z,83.40
2022-08-27T00:11:25.362Z,83.30
2022-08-27T00:13:53.579Z,83.60
2022-08-27T00:16:21.946Z,83.30
2022-08-27T00:18:49.861Z,83.40
2022-08-27T00:21:18.834Z,83.30
2022-08-27T00:23:46.853Z,83.40
2022-08-27T00:26:16.048Z,83.40
2022-08-27T00:28:45.536Z,83.60
2022-08-27T00:31:13.417Z,84.00
2022-08-27T00:33:41.373Z,83.90
2022-08-27T00:36:09.594Z,83.80
2022-08-27T00:41:35.095Z,83.90
2022-08-27T00:44:04.448Z,83.90
2022-08-27T00:46:35.989Z,83.70
2022-08-27T00:49:09.020Z,83.70
2022-08-27T00:51:37.962Z,83.90
2022-08-27T00:54:08.263Z,83.90
2022-08-27T00:56:40.629Z,84.00
2022-08-27T00:59:09.715Z,84.00
2022-08-27T01:01:59.536Z,83.90
2022-08-27T01:04:27.991Z,84.60
2022-08-27T01:06:56.451Z,84.10
2022-08-27T01:09:24.787Z,84.30
2022-08-27T01:11:52.745Z,84.40
2022-08-27T01:14:21.977Z,84.50
2022-08-27T01:16:54.244Z,84.20
2022-08-27T01:19:29.446Z,84.30
2022-08-27T01:22:04.341Z,84.70
2022-08-27T01:24:37.539Z,84.30
2022-08-27T01:27:13.405Z,84.30
2022-08-27T01:29:42.933Z,84.40
2022-08-27T01:32:13.905Z,84.30
2022-08-27T01:34:42.451Z,84.70
2022-08-27T01:37:10.674Z,84.70
2022-08-27T01:42:39.748Z,84.50
2022-08-27T01:45:10.856Z,84.50
2022-08-27T01:47:38.940Z,84.50
2022-08-27T01:50:11.128Z,84.50
2022-08-27T01:52:38.914Z,84.50
2022-08-27T01:55:10.308Z,84.50
2022-08-27T01:57:38.428Z,84.60
2022-08-27T02:00:09.761Z,84.40
2022-08-27T02:02:37.605Z,84.50
2022-08-27T02:05:05.794Z,84.40
2022-08-27T02:07:33.760Z,84.70
2022-08-27T02:10:04.432Z,84.40
2022-08-27T02:12:33.521Z,85.20
2022-08-27T02:15:04.876Z,84.50
2022-08-27T02:17:32.647Z,84.70
2022-08-27T02:20:00.834Z,84.80
2022-08-27T02:22:28.639Z,84.90
2022-08-27T02:24:56.515Z,84.80
2022-08-27T02:27:24.789Z,85.00
2022-08-27T02:29:54.465Z,84.70
2022-08-27T02:32:31.168Z,84.80
2022-08-27T02:35:00.882Z,84.80
2022-08-27T02:37:29.138Z,84.70
2022-08-27T02:39:57.018Z,84.80
2022-08-27T02:42:24.891Z,84.70
2022-08-27T02:44:54.878Z,85.20
2022-08-27T02:47:22.630Z,85.10
2022-08-27T02:49:50.979Z,85.30
2022-08-27T02:52:25.012Z,85.10
2022-08-27T02:54:53.472Z,84.90
2022-08-27T02:57:25.091Z,85.10
2022-08-27T02:59:54.777Z,85.20
2022-08-27T03:02:22.870Z,85.00
2022-08-27T03:04:54.125Z,85.00
2022-08-27T03:07:24.211Z,85.00
2022-08-27T03:09:52.036Z,85.40
2022-08-27T03:12:19.875Z,85.10
2022-08-27T03:14:50.641Z,85.20
2022-08-27T03:17:37.328Z,85.20
2022-08-27T03:20:06.911Z,85.40
2022-08-27T03:22:34.676Z,85.20
2022-08-27T03:25:03.309Z,85.10
2022-08-27T03:27:31.128Z,85.20
2022-08-27T03:30:03.198Z,85.20
2022-08-27T03:32:33.422Z,85.30
2022-08-27T03:35:01.163Z,85.50
2022-08-27T03:37:28.982Z,85.60
2022-08-27T03:39:56.759Z,85.20
2022-08-27T03:42:24.642Z,85.20
2022-08-27T03:44:52.464Z,85.20
2022-08-27T03:47:20.976Z,85.50
2022-08-27T03:49:50.083Z,85.90
2022-08-27T03:52:17.900Z,85.70
2022-08-27T03:55:36.874Z,85.50
2022-08-27T03:58:04.620Z,85.80
2022-08-27T04:00:32.360Z,85.70
2022-08-27T04:03:00.402Z,85.70
2022-08-27T04:05:29.492Z,85.70
2022-08-27T04:07:57.417Z,85.80
2022-08-27T04:10:25.718Z,85.90
2022-08-27T04:13:00.916Z,85.60
2022-08-27T04:15:29.102Z,85.80
2022-08-27T04:17:56.845Z,85.60
2022-08-27T04:20:34.923Z,85.70
2022-08-27T04:23:04.841Z,85.90
2022-08-27T04:25:32.813Z,85.90
2022-08-27T04:28:00.713Z,85.70
2022-08-27T04:30:28.628Z,86.00
2022-08-27T04:32:56.355Z,85.90
2022-08-27T04:35:24.092Z,85.80
2022-08-27T04:37:51.855Z,85.90
2022-08-27T04:40:22.329Z,86.00
2022-08-27T04:42:50.111Z,86.00
2022-08-27T04:45:17.873Z,86.10
2022-08-27T04:47:45.653Z,86.00
2022-08-27T04:50:13.581Z,86.10
2022-08-27T04:52:42.516Z,86.30
2022-08-27T04:55:11.139Z,86.10
2022-08-27T04:57:40.207Z,86.30
2022-08-27T05:00:09.361Z,86.20
2022-08-27T05:02:37.095Z,86.20
2022-08-27T05:05:05.017Z,86.50
2022-08-27T05:07:32.812Z,86.30
2022-08-27T05:10:00.552Z,86.10
2022-08-27T05:12:28.312Z,86.10
2022-08-27T05:14:57.385Z,86.30
2022-08-27T05:17:25.095Z,86.40
2022-08-27T05:19:52.845Z,86.30
2022-08-27T05:22:21.069Z,86.30
2022-08-27T05:24:50.531Z,86.40
2022-08-27T05:27:18.493Z,86.10
2022-08-27T05:29:46.217Z,86.20
2022-08-27T05:32:15.277Z,86.30
2022-08-27T05:34:43.271Z,86.30
2022-08-27T05:37:11.121Z,86.20
2022-08-27T05:39:39.002Z,86.20
2022-08-27T05:42:07.157Z,86.30
2022-08-27T05:44:41.030Z,86.30
2022-08-27T05:47:09.984Z,86.30
2022-08-27T05:49:39.225Z,86.40
2022-08-27T05:52:10.842Z,86.50
2022-08-27T05:54:38.860Z,87.30
2022-08-27T05:57:12.717Z,86.60
2022-08-27T05:59:58.370Z,86.60
2022-08-27T06:02:26.205Z,86.70
2022-08-27T06:04:55.572Z,86.80
2022-08-27T06:07:23.406Z,86.60
2022-08-27T06:09:51.207Z,86.80
2022-08-27T06:12:18.993Z,86.60
2022-08-27T06:14:54.766Z,86.70
2022-08-27T06:17:22.928Z,86.70
2022-08-27T06:19:50.823Z,86.90
2022-08-27T06:22:19.907Z,86.90
2022-08-27T06:24:47.625Z,87.00
2022-08-27T06:27:19.006Z,86.90
2022-08-27T06:29:47.323Z,87.00
2022-08-27T06:32:15.635Z,86.90
2022-08-27T06:34:43.746Z,87.40
2022-08-27T06:37:11.756Z,87.20
2022-08-27T06:39:41.705Z,87.10
2022-08-27T06:42:12.329Z,87.10
2022-08-27T06:44:40.279Z,87.30
2022-08-27T06:47:08.088Z,87.20
2022-08-27T06:49:35.877Z,87.20
2022-08-27T06:52:03.996Z,87.30
2022-08-27T06:54:36.115Z,87.40
2022-08-27T06:57:05.433Z,87.60
2022-08-27T06:59:36.208Z,87.40
2022-08-27T07:02:06.502Z,87.40
2022-08-27T07:07:34.372Z,87.50
2022-08-27T07:10:05.049Z,87.50
2022-08-27T07:12:34.128Z,87.40
2022-08-27T07:15:01.904Z,87.40
2022-08-27T07:17:29.950Z,87.40
2022-08-27T07:19:57.899Z,87.30
2022-08-27T07:22:25.653Z,87.40
2022-08-27T07:24:53.769Z,87.50
2022-08-27T07:27:21.832Z,87.50
2022-08-27T07:29:51.044Z,87.50
2022-08-27T07:32:19.503Z,87.50
2022-08-27T07:34:47.365Z,87.60
2022-08-27T07:37:15.545Z,87.60
2022-08-27T07:39:43.364Z,87.70
2022-08-27T07:42:28.725Z,87.60
2022-08-27T07:44:57.854Z,87.80
2022-08-27T07:47:25.910Z,87.50
2022-08-27T07:49:53.765Z,87.50
2022-08-27T07:52:25.879Z,87.70
2022-08-27T07:54:54.489Z,87.60
2022-08-27T07:57:22.273Z,87.40
2022-08-27T07:59:50.083Z,87.50
2022-08-27T08:02:19.258Z,87.60
2022-08-27T08:04:47.164Z,87.80
2022-08-27T08:07:15.063Z,87.40
2022-08-27T08:09:42.859Z,87.50
2022-08-27T08:12:10.700Z,87.60
2022-08-27T08:14:38.488Z,88.20
2022-08-27T08:17:10.606Z,87.70
2022-08-27T08:19:40.281Z,87.50
2022-08-27T08:22:12.781Z,87.50
2022-08-27T08:24:40.556Z,87.50
2022-08-27T08:27:08.594Z,87.20
2022-08-27T08:29:37.494Z,87.30
2022-08-27T08:32:06.087Z,87.40
2022-08-27T08:34:37.400Z,87.40
2022-08-27T08:37:07.495Z,87.50
2022-08-27T08:39:36.693Z,87.40
2022-08-27T08:42:07.739Z,87.40
2022-08-27T08:44:39.640Z,87.40
2022-08-27T08:47:12.985Z,87.40
2022-08-27T08:49:49.986Z,87.40
2022-08-27T08:52:30.616Z,87.60
2022-08-27T08:55:12.841Z,87.50
2022-08-27T08:57:49.630Z,87.60
2022-08-27T09:00:17.546Z,87.30
2022-08-27T09:02:55.874Z,87.40
2022-08-27T09:05:27.669Z,87.30
2022-08-27T09:08:21.622Z,87.40
2022-08-27T09:10:58.204Z,87.20
2022-08-27T09:13:30.561Z,87.10
2022-08-27T09:16:01.991Z,87.10
2022-08-27T09:18:31.326Z,87.10
2022-08-27T09:21:11.703Z,87.10
2022-08-27T09:23:51.731Z,87.10
2022-08-27T09:26:23.139Z,87.00
2022-08-27T09:29:14.618Z,87.00
2022-08-27T09:31:43.198Z,87.00
2022-08-27T09:34:11.602Z,86.90
2022-08-27T09:36:51.291Z,87.00
2022-08-27T09:39:21.091Z,86.70
2022-08-27T09:41:50.616Z,86.70
2022-08-27T09:44:20.267Z,86.50
2022-08-27T09:46:54.495Z,86.50
2022-08-27T09:49:24.143Z,86.50
2022-08-27T09:51:54.410Z,86.40
2022-08-27T09:54:31.790Z,86.20
2022-08-27T09:57:00.189Z,86.20
2022-08-27T09:59:32.642Z,86.20
2022-08-27T10:02:11.655Z,86.20
2022-08-27T10:04:50.728Z,86.00
2022-08-27T10:07:31.576Z,86.00
2022-08-27T10:10:09.717Z,86.00
2022-08-27T10:12:47.814Z,85.90
2022-08-27T10:15:16.603Z,85.60
2022-08-27T10:17:54.270Z,85.60
2022-08-27T10:20:33.577Z,85.60
2022-08-27T10:23:15.070Z,85.50
2022-08-27T10:25:55.527Z,85.40
2022-08-27T10:28:38.767Z,85.30
2022-08-27T10:31:19.677Z,85.20
2022-08-27T10:33:59.649Z,85.30
2022-08-27T10:36:40.511Z,85.20
2022-08-27T10:39:15.781Z,85.40
2022-08-27T10:41:50.601Z,85.40
2022-08-27T10:44:39.562Z,85.30
2022-08-27T10:47:31.265Z,85.30
2022-08-27T10:50:04.627Z,85.40
2022-08-27T10:52:38.588Z,85.10
2022-08-27T10:55:19.841Z,85.00
2022-08-27T10:58:16.921Z,84.90
2022-08-27T11:00:52.324Z,85.10
2022-08-27T11:03:27.075Z,84.80
2022-08-27T11:06:04.391Z,84.90
2022-08-27T11:08:39.759Z,84.80
2022-08-27T11:14:09.371Z,84.60
2022-08-27T11:16:45.707Z,84.60
2022-08-27T11:19:20.137Z,84.50
2022-08-27T11:22:01.553Z,84.50
2022-08-27T11:24:39.388Z,84.40
2022-08-27T11:27:09.227Z,84.60
2022-08-27T11:29:48.654Z,84.50
2022-08-27T11:32:28.407Z,84.40
2022-08-27T11:35:00.321Z,85.00
2022-08-27T11:37:54.174Z,84.00
2022-08-27T11:40:41.012Z,84.00
2022-08-27T11:43:11.146Z,83.90
2022-08-27T11:45:55.555Z,83.90
2022-08-27T11:48:26.031Z,83.70
2022-08-27T11:50:56.743Z,83.70
2022-08-27T11:53:30.218Z,83.60
2022-08-27T11:56:03.982Z,83.60
2022-08-27T11:58:34.623Z,83.50
2022-08-27T12:01:28.269Z,84.30
2022-08-27T12:04:02.986Z,83.50
2022-08-27T12:06:42.505Z,83.60
2022-08-27T12:09:17.525Z,83.60
2022-08-27T12:11:57.079Z,83.30
2022-08-27T12:14:37.151Z,83.30
2022-08-27T12:17:12.783Z,83.10
2022-08-27T12:19:54.318Z,83.10
2022-08-27T12:23:05.407Z,83.20
2022-08-27T12:25:33.559Z,83.20
2022-08-27T12:28:04.728Z,83.00
2022-08-27T12:30:34.766Z,83.00
2022-08-27T12:33:13.285Z,83.10
2022-08-27T12:35:45.682Z,83.00
2022-08-27T12:38:18.607Z,83.00
2022-08-27T12:40:51.910Z,82.90
2022-08-27T12:43:22.686Z,83.00
2022-08-27T12:45:52.611Z,82.90
2022-08-27T12:48:26.258Z,82.80
2022-08-27T12:50:56.280Z,82.60
2022-08-27T12:53:43.443Z,82.40
2022-08-27T12:56:37.296Z,82.30
2022-08-27T12:59:19.509Z,82.20
2022-08-27T13:01:58.959Z,82.40
2022-08-27T13:04:30.964Z,82.40
2022-08-27T13:06:59.022Z,82.20
2022-08-27T13:11:56.891Z,82.20
2022-08-27T13:14:26.781Z,82.10
2022-08-27T13:16:57.381Z,82.30
2022-08-27T13:19:30.029Z,82.20
2022-08-27T13:21:58.869Z,82.20
2022-08-27T13:24:32.062Z,82.30
2022-08-27T13:27:05.097Z,82.10
2022-08-27T13:29:33.439Z,81.90
2022-08-27T13:32:01.648Z,81.90
2022-08-27T13:34:35.499Z,81.90
2022-08-27T13:37:06.041Z,81.70
2022-08-27T13:39:35.640Z,81.70
2022-08-27T13:42:10.829Z,81.60
2022-08-27T13:44:41.820Z,81.60
2022-08-27T13:47:21.379Z,81.30
2022-08-27T13:49:50.792Z,81.40
2022-08-27T13:52:26.401Z,81.40
2022-08-27T13:54:59.717Z,81.30
2022-08-27T13:57:31.077Z,80.90
2022-08-27T14:00:12.027Z,81.00
2022-08-27T14:02:39.846Z,80.80
2022-08-27T14:05:12.787Z,80.90
2022-08-27T14:07:47.395Z,80.70
2022-08-27T14:10:32.393Z,80.60
2022-08-27T14:13:03.094Z,80.70
2022-08-27T14:15:34.837Z,80.60
2022-08-27T14:18:07.768Z,80.30
2022-08-27T14:20:38.163Z,80.30
2022-08-27T14:23:15.841Z,80.60
2022-08-27T14:25:43.579Z,80.50
2022-08-27T14:28:11.493Z,80.40
2022-08-27T14:30:39.656Z,80.30
2022-08-27T14:33:07.506Z,80.10
2022-08-27T14:35:37.353Z,80.10
2022-08-27T14:38:10.979Z,80.10
2022-08-27T14:40:38.968Z,80.00
2022-08-27T14:43:07.211Z,80.10
2022-08-27T14:45:37.017Z,80.10
2022-08-27T14:48:07.046Z,80.00
2022-08-27T14:50:48.665Z,80.00
2022-08-27T14:53:17.656Z,80.00
2022-08-27T14:55:45.362Z,80.30
2022-08-27T14:58:20.312Z,80.30
2022-08-27T15:00:48.753Z,80.10
2022-08-27T15:03:16.523Z,80.20
2022-08-27T15:05:45.589Z,80.00
2022-08-27T15:08:13.558Z,80.10
2022-08-27T15:10:44.497Z,80.20
2022-08-27T15:13:12.305Z,80.10
2022-08-27T15:15:40.177Z,80.10
2022-08-27T15:18:08.643Z,80.20
2022-08-27T15:20:36.417Z,80.20
2022-08-27T15:23:06.861Z,80.20
2022-08-27T15:25:35.327Z,80.10
2022-08-27T15:28:03.277Z,79.90
2022-08-27T15:30:31.151Z,79.60
2022-08-27T15:32:58.989Z,79.90
2022-08-27T15:35:28.341Z,80.00
2022-08-27T15:37:57.861Z,79.90
2022-08-27T15:40:29.095Z,79.70
2022-08-27T15:42:59.472Z,80.30
2022-08-27T15:45:27.943Z,79.60
2022-08-27T15:47:55.889Z,79.60
2022-08-27T15:50:23.663Z,79.70
2022-08-27T15:52:56.169Z,79.70
2022-08-27T15:55:27.473Z,79.60
2022-08-27T15:57:56.381Z,79.60
2022-08-27T16:00:25.037Z,79.60
2022-08-27T16:02:53.952Z,79.40
2022-08-27T16:05:22.844Z,79.50
2022-08-27T16:07:50.815Z,79.60
2022-08-27T16:10:19.032Z,79.60
2022-08-27T16:12:48.160Z,79.40
2022-08-27T16:15:17.241Z,79.50
2022-08-27T16:17:45.417Z,79.30
2022-08-27T16:20:16.081Z,79.40
2022-08-27T16:22:45.740Z,79.30
2022-08-27T16:25:18.399Z,79.20
2022-08-27T16:27:47.907Z,79.40
2022-08-27T16:30:15.692Z,79.40
2022-08-27T16:32:46.500Z,79.50
2022-08-27T16:35:15.354Z,79.30
2022-08-27T16:37:43.493Z,79.20
2022-08-27T16:40:11.988Z,79.10
2022-08-27T16:42:43.675Z,79.20
2022-08-27T16:45:14.422Z,79.40
2022-08-27T16:47:56.175Z,79.40
2022-08-27T16:50:36.138Z,79.20
2022-08-27T16:53:07.101Z,79.00
2022-08-27T16:55:35.330Z,78.90
2022-08-27T16:58:08.045Z,78.90
2022-08-27T17:00:38.444Z,78.90
2022-08-27T17:03:07.579Z,78.80
2022-08-27T17:05:35.501Z,78.70
2022-08-27T17:08:03.984Z,78.60
2022-08-27T17:10:36.356Z,78.80
2022-08-27T17:13:08.652Z,78.90
2022-08-27T17:15:39.502Z,78.70
2022-08-27T17:18:07.507Z,78.90
2022-08-27T17:20:36.307Z,78.80
2022-08-27T17:23:06.579Z,78.80
2022-08-27T17:25:34.418Z,78.80
2022-08-27T17:28:03.825Z,78.80
2022-08-27T17:30:32.095Z,78.80
2022-08-27T17:33:01.212Z,78.80
2022-08-27T17:35:28.970Z,78.60
2022-08-27T17:37:56.903Z,78.70
2022-08-27T17:40:24.702Z,78.70
2022-08-27T17:42:53.024Z,78.80
2022-08-27T17:45:20.824Z,78.70
2022-08-27T17:47:48.566Z,78.70
2022-08-27T17:50:23.829Z,78.70
2022-08-27T17:52:51.828Z,78.60
2022-08-27T17:55:19.680Z,78.70
2022-08-27T17:57:47.544Z,78.70
2022-08-27T18:00:16.127Z,78.70
2022-08-27T18:02:46.806Z,78.70
2022-08-27T18:05:15.415Z,78.80
2022-08-27T18:07:45.177Z,78.70
2022-08-27T18:10:16.577Z,78.70
2022-08-27T18:12:45.324Z,78.60
2022-08-27T18:15:18.679Z,78.60
2022-08-27T18:17:48.863Z,78.60
2022-08-27T18:20:25.275Z,78.60
2022-08-27T18:22:54.779Z,78.70
2022-08-27T18:25:25.391Z,78.70
2022-08-27T18:27:56.258Z,78.70
2022-08-27T18:30:25.118Z,78.80
2022-08-27T18:32:53.448Z,78.70
2022-08-27T18:35:25.582Z,78.70
2022-08-27T18:37:55.030Z,78.80
2022-08-27T18:40:26.178Z,78.80
2022-08-27T18:42:56.301Z,78.90
2022-08-27T18:45:26.285Z,78.90
2022-08-27T18:47:58.889Z,78.80
2022-08-27T18:50:27.289Z,78.80
2022-08-27T18:52:57.677Z,78.80
2022-08-27T18:55:27.993Z,78.80
2022-08-27T18:57:59.840Z,78.80
2022-08-27T19:00:27.581Z,78.70
2022-08-27T19:02:59.621Z,78.70
2022-08-27T19:05:28.783Z,78.80
2022-08-27T19:07:59.719Z,78.80
2022-08-27T19:10:28.022Z,78.80
2022-08-27T19:12:55.886Z,78.90
2022-08-27T19:15:23.635Z,78.80
2022-08-27T19:17:54.354Z,78.90
2022-08-27T19:20:22.448Z,78.90
2022-08-27T19:22:52.971Z,78.90
2022-08-27T19:25:23.680Z,78.90
2022-08-27T19:27:53.661Z,78.90
2022-08-27T19:30:21.915Z,78.80
2022-08-27T19:32:54.986Z,78.80
2022-08-27T19:35:26.092Z,78.80
2022-08-27T19:37:55.879Z,78.90
2022-08-27T19:40:25.892Z,79.00
2022-08-27T19:42:53.899Z,79.00
2022-08-27T19:45:24.841Z,79.00
2022-08-27T19:47:53.435Z,79.00
2022-08-27T19:50:22.741Z,79.00
2022-08-27T19:52:50.773Z,78.90
2022-08-27T19:55:18.982Z,78.90
2022-08-27T19:57:48.771Z,78.90
2022-08-27T20:00:23.295Z,78.90
2022-08-27T20:02:51.183Z,79.00
2022-08-27T20:05:20.161Z,79.10
2022-08-27T20:07:49.183Z,79.00
2022-08-27T20:10:17.697Z,79.00
2022-08-27T20:12:46.066Z,79.00
2022-08-27T20:15:15.798Z,78.90
2022-08-27T20:17:44.095Z,78.90
2022-08-27T20:20:13.877Z,78.90
2022-08-27T20:22:42.471Z,78.90
2022-08-27T20:25:10.771Z,78.90
2022-08-27T20:27:38.607Z,79.10
2022-08-27T20:30:08.092Z,79.00
2022-08-27T20:32:37.305Z,79.00
2022-08-27T20:35:05.435Z,78.90
2022-08-27T20:37:33.416Z,79.00
2022-08-27T20:40:01.287Z,79.00
2022-08-27T20:42:29.122Z,79.00
2022-08-27T20:44:57.047Z,78.90
2022-08-27T20:47:28.021Z,79.00
2022-08-27T20:49:57.657Z,78.80
2022-08-27T20:52:27.060Z,78.80
2022-08-27T20:54:54.835Z,78.90
2022-08-27T20:57:24.748Z,78.90
2022-08-27T21:00:10.321Z,78.90
2022-08-27T21:02:38.351Z,78.90
2022-08-27T21:05:10.387Z,79.00
2022-08-27T21:07:38.208Z,78.90
2022-08-27T21:10:07.791Z,78.90
2022-08-27T21:12:36.241Z,78.80
2022-08-27T21:15:06.389Z,78.90
2022-08-27T21:17:34.252Z,78.90
2022-08-27T21:20:02.062Z,78.80
2022-08-27T21:22:31.192Z,78.80
2022-08-27T21:24:58.955Z,78.90
2022-08-27T21:27:26.886Z,79.00
2022-08-27T21:29:54.779Z,79.00
2022-08-27T21:32:23.500Z,79.00
2022-08-27T21:34:51.676Z,79.00
2022-08-27T21:37:19.579Z,79.00
2022-08-27T21:39:48.726Z,79.10
2022-08-27T21:42:17.016Z,79.00
2022-08-27T21:44:44.932Z,79.00
2022-08-27T21:47:17.391Z,79.00
2022-08-27T21:49:45.132Z,79.00
2022-08-27T21:52:12.949Z,79.00
2022-08-27T21:54:42.373Z,78.90
2022-08-27T21:57:15.404Z,79.00
2022-08-27T21:59:46.579Z,79.00
2022-08-27T22:02:38.089Z,79.00
2022-08-27T22:05:03.336Z,79.00
2022-08-27T22:07:31.123Z,79.00
2022-08-27T22:09:58.861Z,78.90
2022-08-27T22:12:28.020Z,78.90
2022-08-27T22:14:55.783Z,78.80
2022-08-27T22:17:23.562Z,78.80
2022-08-27T22:19:51.299Z,78.80
2022-08-27T22:22:21.096Z,78.80
2022-08-27T22:24:48.988Z,78.80
2022-08-27T22:27:16.811Z,78.70
2022-08-27T22:29:45.965Z,78.60
2022-08-27T22:32:13.753Z,78.60
2022-08-27T22:34:41.496Z,78.70
2022-08-27T22:37:09.291Z,78.60
2022-08-27T22:39:37.207Z,78.60
2022-08-27T22:42:05.385Z,78.50
2022-08-27T22:44:33.561Z,78.50
2022-08-27T22:47:02.684Z,78.50
2022-08-27T22:49:32.229Z,78.50
2022-08-27T22:52:00.009Z,78.60
2022-08-27T22:54:27.756Z,78.70
2022-08-27T22:56:55.569Z,78.70
2022-08-27T22:59:23.337Z,78.70
2022-08-27T23:01:51.357Z,78.70
2022-08-27T23:04:25.460Z,78.80
2022-08-27T23:07:02.621Z,78.70
2022-08-27T23:09:31.700Z,78.60
2022-08-27T23:12:00.413Z,78.70
2022-08-27T23:14:30.438Z,78.70
2022-08-27T23:16:58.923Z,78.70
2022-08-27T23:19:32.055Z,78.60
2022-08-27T23:22:00.343Z,78.60
2022-08-27T23:24:29.504Z,78.60
2022-08-27T23:27:14.846Z,78.60
2022-08-27T23:29:42.761Z,78.60
2022-08-27T23:32:10.526Z,78.60
2022-08-27T23:34:39.637Z,78.60
2022-08-27T23:37:07.427Z,78.70
2022-08-27T23:39:35.235Z,78.80
2022-08-27T23:42:03.021Z,78.90
2022-08-27T23:44:32.742Z,78.90
2022-08-27T23:47:01.037Z,78.90
2022-08-27T23:49:30.906Z,78.90
2022-08-27T23:52:00.111Z,78.90
2022-08-27T23:54:27.873Z,78.80
2022-08-27T23:56:55.649Z,78.90
2022-08-27T23:59:26.597Z,78.90
